Time;durP1;ratioP1;P1;durP2;ratioP2;P2;SDS_P1;SDS_P2;PMS_P1;PMS_P2;Temp;Humidity;BMP_temperature;BMP_pressure;BME280_temperature;BME280_humidity;BME280_pressure;Samples;Min_cycle;Max_cycle;Signal;HPM_P1;HPM_P2
2022/11/30 00:01:20;;;;;;;104.03;42.10;;;;;;;6.17;100.00;102148.97;5013781;28;20065;-57
2022/11/30 00:03:45;;;;;;;107.45;43.00;;;;;;;6.16;100.00;102152.53;5013227;28;20037;-59
2022/11/30 00:06:13;;;;;;;105.45;43.65;;;;;;;6.13;100.00;102150.09;5015624;28;20099;-57
2022/11/30 00:08:39;;;;;;;109.00;43.80;;;;;;;6.14;100.00;102159.69;5020887;28;20116;-57
2022/11/30 00:11:13;;;;;;;111.35;42.50;;;;;;;6.15;100.00;102156.97;5022122;28;20035;-56
2022/11/30 00:13:38;;;;;;;103.78;43.30;;;;;;;6.14;100.00;102157.06;5022858;28;20037;-56
2022/11/30 00:16:04;;;;;;;106.43;42.55;;;;;;;6.18;100.00;102150.66;5017560;28;20048;-57
2022/11/30 00:18:30;;;;;;;106.63;42.38;;;;;;;6.15;100.00;102156.13;5018667;28;20044;-57
2022/11/30 00:21:01;;;;;;;101.03;41.13;;;;;;;6.19;100.00;102158.47;5017340;28;20033;-58
2022/11/30 00:23:31;;;;;;;101.30;41.95;;;;;;;6.15;100.00;102154.34;5018885;28;20041;-57
2022/11/30 00:25:59;;;;;;;98.07;41.45;;;;;;;6.18;100.00;102156.75;5020379;28;20453;-56
2022/11/30 00:28:25;;;;;;;103.18;42.65;;;;;;;6.18;100.00;102158.56;5014470;28;20045;-57
2022/11/30 00:31:02;;;;;;;102.97;40.05;;;;;;;6.17;100.00;102159.50;5020824;28;20113;-60
2022/11/30 00:33:28;;;;;;;97.70;40.22;;;;;;;6.19;100.00;102157.63;5014078;28;20528;-58
2022/11/30 00:35:57;;;;;;;97.10;41.17;;;;;;;6.18;100.00;102155.94;5024472;28;20553;-57
2022/11/30 00:38:24;;;;;;;102.47;40.75;;;;;;;6.17;100.00;102159.50;5021098;28;20037;-57
2022/11/30 00:40:49;;;;;;;96.60;40.10;;;;;;;6.21;100.00;102160.16;5019038;28;20061;-58
2022/11/30 00:43:14;;;;;;;102.47;42.25;;;;;;;6.16;100.00;102163.06;5022969;28;20074;-56
2022/11/30 00:45:40;;;;;;;96.53;40.55;;;;;;;6.15;100.00;102158.75;5022549;28;20063;-58
2022/11/30 00:48:05;;;;;;;103.85;41.47;;;;;;;6.14;100.00;102167.59;5021409;28;20045;-57
2022/11/30 00:50:31;;;;;;;94.72;40.47;;;;;;;6.13;100.00;102166.75;5021101;28;20033;-59
2022/11/30 00:52:56;;;;;;;93.43;40.15;;;;;;;6.14;100.00;102164.97;5021076;28;20045;-56
2022/11/30 00:55:22;;;;;;;97.20;39.20;;;;;;;6.17;100.00;102165.59;5022323;28;20469;-59
2022/11/30 00:57:47;;;;;;;90.95;39.17;;;;;;;6.15;100.00;102171.91;5021773;28;20040;-57
2022/11/30 01:00:12;;;;;;;88.55;38.38;;;;;;;6.18;100.00;102167.28;5019855;28;20365;-58
2022/11/30 01:02:38;;;;;;;96.05;38.72;;;;;;;6.19;100.00;102170.78;5014659;28;20047;-58
2022/11/30 01:05:03;;;;;;;87.32;37.03;;;;;;;6.20;100.00;102169.84;5020152;28;20064;-58
2022/11/30 01:07:28;;;;;;;84.25;36.45;;;;;;;6.15;100.00;102171.91;5017592;28;20441;-56
2022/11/30 01:09:54;;;;;;;89.75;39.75;;;;;;;6.13;100.00;102168.53;5016482;28;20116;-58
2022/11/30 01:12:19;;;;;;;87.03;37.55;;;;;;;6.12;100.00;102177.41;5018176;28;20038;-58
2022/11/30 01:14:44;;;;;;;91.55;39.35;;;;;;;6.10;100.00;102176.63;5018608;28;20063;-57
2022/11/30 01:17:10;;;;;;;81.88;36.88;;;;;;;6.10;100.00;102174.00;5013398;28;20615;-59
2022/11/30 01:19:35;;;;;;;83.88;37.17;;;;;;;6.12;100.00;102172.13;5016198;28;20037;-58
2022/11/30 01:22:00;;;;;;;80.85;36.28;;;;;;;6.15;100.00;102167.50;5021693;28;20099;-58
2022/11/30 01:24:25;;;;;;;84.63;36.78;;;;;;;6.14;100.00;102170.22;5018624;28;20511;-56
2022/11/30 01:26:51;;;;;;;79.72;35.08;;;;;;;6.16;100.00;102168.34;5014970;28;20042;-58
2022/11/30 01:29:16;;;;;;;80.20;34.47;;;;;;;6.17;100.00;102173.50;5019653;28;20139;-57
2022/11/30 01:31:41;;;;;;;82.72;36.42;;;;;;;6.14;100.00;102170.22;5019669;28;20048;-57
2022/11/30 01:34:07;;;;;;;80.13;35.33;;;;;;;6.14;100.00;102176.34;5022007;28;20080;-57
2022/11/30 01:36:32;;;;;;;79.18;35.15;;;;;;;6.18;100.00;102171.72;5010712;28;20078;-57
2022/11/30 01:38:57;;;;;;;77.53;34.78;;;;;;;6.15;100.00;102170.13;5019214;28;20033;-57
2022/11/30 01:41:29;;;;;;;80.22;34.03;;;;;;;6.16;100.00;102173.59;5021208;28;20467;-56
2022/11/30 01:44:04;;;;;;;69.13;32.63;;;;;;;6.17;100.00;102175.31;5016384;28;20045;-59
2022/11/30 01:46:34;;;;;;;68.43;31.52;;;;;;;6.20;100.00;102169.84;5016416;28;20092;-57
2022/11/30 01:49:10;;;;;;;72.85;32.60;;;;;;;6.12;100.00;102167.69;5021116;28;20439;-58
2022/11/30 01:51:45;;;;;;;76.00;32.70;;;;;;;6.14;100.00;102176.34;5022838;28;20025;-56
2022/11/30 01:54:13;;;;;;;71.72;32.60;;;;;;;6.09;100.00;102167.03;5020419;28;20021;-55
2022/11/30 01:56:44;;;;;;;69.20;32.55;;;;;;;6.08;100.00;102176.75;5025573;28;20040;-58
2022/11/30 01:59:10;;;;;;;66.82;33.08;;;;;;;6.09;100.00;102188.13;5023008;28;20039;-56
2022/11/30 02:01:36;;;;;;;73.63;32.55;;;;;;;6.09;100.00;102185.47;5016629;28;20037;-57
2022/11/30 02:04:08;;;;;;;68.65;33.20;;;;;;;6.09;100.00;102194.25;5014692;28;20033;-56
2022/11/30 02:06:34;;;;;;;64.53;31.63;;;;;;;6.10;100.00;102190.66;5016242;28;20033;-57
2022/11/30 02:08:59;;;;;;;66.10;31.80;;;;;;;6.11;100.00;102191.50;5014870;28;20080;-56
2022/11/30 02:11:26;;;;;;;61.50;30.98;;;;;;;6.09;100.00;102188.97;5007861;28;20029;-57
2022/11/30 02:14:22;;;;;;;64.65;31.48;;;;;;;6.14;100.00;102191.31;5022065;28;20029;-58
2022/11/30 02:17:02;;;;;;;67.70;31.55;;;;;;;6.17;100.00;102188.47;5020016;28;20120;-57
2022/11/30 02:19:53;;;;;;;61.42;30.85;;;;;;;6.15;100.00;102193.00;5024283;28;20037;-60
2022/11/30 02:23:08;;;;;;;62.72;30.17;;;;;;;6.22;100.00;102191.63;5021564;28;20037;-56
2022/11/30 02:25:53;;;;;;;58.03;29.88;;;;;;;6.14;100.00;102193.94;5017000;28;20052;-59
2022/11/30 02:28:33;;;;;;;58.55;30.02;;;;;;;6.10;100.00;102189.81;5028998;28;20874;-57
2022/11/30 02:31:01;;;;;;;57.78;28.65;;;;;;;6.10;100.00;102188.03;5015495;28;20033;-59
2022/11/30 02:33:30;;;;;;;54.70;28.83;;;;;;;6.04;100.00;102186.63;5009072;28;20418;-58
2022/11/30 02:35:58;;;;;;;55.47;28.92;;;;;;;6.09;100.00;102199.50;5021416;28;20125;-58
2022/11/30 02:38:26;;;;;;;51.55;27.45;;;;;;;6.10;100.00;102193.28;5012199;28;20159;-57
2022/11/30 02:40:51;;;;;;;52.47;28.55;;;;;;;6.09;100.00;102198.66;5013620;28;20041;-59
2022/11/30 02:43:20;;;;;;;51.20;28.17;;;;;;;6.05;100.00;102201.50;5010353;28;20048;-57
2022/11/30 02:46:04;;;;;;;52.70;26.77;;;;;;;6.11;100.00;102196.78;5015495;28;20030;-56
2022/11/30 02:48:44;;;;;;;46.03;26.77;;;;;;;6.07;100.00;102200.53;5014092;28;20678;-56
2022/11/30 02:51:14;;;;;;;45.97;26.60;;;;;;;6.04;100.00;102205.06;5015438;28;20103;-57
2022/11/30 02:53:40;;;;;;;48.35;26.27;;;;;;;6.10;100.00;102208.22;5016330;28;20052;-56
2022/11/30 02:56:06;;;;;;;47.55;26.52;;;;;;;6.12;100.00;102207.19;5014137;28;20021;-59
2022/11/30 02:58:31;;;;;;;43.15;25.58;;;;;;;6.14;100.00;102207.97;5015218;28;20437;-57
2022/11/30 03:00:57;;;;;;;46.28;25.52;;;;;;;6.15;100.00;102203.53;5009356;28;20142;-58
2022/11/30 03:03:22;;;;;;;47.97;26.17;;;;;;;6.18;100.00;102209.44;5023074;28;20069;-57
2022/11/30 03:05:47;;;;;;;44.80;25.20;;;;;;;6.20;100.00;102206.72;5009359;28;20041;-59
2022/11/30 03:08:13;;;;;;;41.15;24.45;;;;;;;6.19;100.00;102215.56;5011499;28;20030;-59
2022/11/30 03:10:38;;;;;;;41.80;24.58;;;;;;;6.18;100.00;102203.34;5020965;28;20034;-56
2022/11/30 03:13:03;;;;;;;42.83;25.38;;;;;;;6.19;100.00;102210.28;5009771;28;20042;-57
2022/11/30 03:15:28;;;;;;;42.38;24.50;;;;;;;6.17;100.00;102206.94;5013276;28;20125;-58
2022/11/30 03:17:54;;;;;;;39.28;24.30;;;;;;;6.14;100.00;102204.47;5023705;28;20398;-56
2022/11/30 03:20:19;;;;;;;41.30;24.02;;;;;;;6.14;100.00;102207.97;5025763;28;20041;-57
2022/11/30 03:22:44;;;;;;;45.80;25.55;;;;;;;6.14;100.00;102201.84;5020163;28;20183;-59
2022/11/30 03:25:10;;;;;;;42.10;23.52;;;;;;;6.15;100.00;102203.53;5015376;28;20129;-59
2022/11/30 03:27:35;;;;;;;41.75;25.10;;;;;;;6.15;100.00;102209.66;5013321;28;20042;-56
2022/11/30 03:30:00;;;;;;;44.95;24.65;;;;;;;6.15;100.00;102200.88;5023049;28;20112;-59
2022/11/30 03:32:26;;;;;;;43.75;24.45;;;;;;;6.14;100.00;102204.47;5016977;28;20041;-59
2022/11/30 03:34:51;;;;;;;41.45;24.08;;;;;;;6.15;100.00;102206.16;5019437;28;20045;-59
2022/11/30 03:37:16;;;;;;;40.63;24.15;;;;;;;6.14;100.00;102207.09;5021624;28;20072;-57
2022/11/30 03:39:41;;;;;;;41.22;23.67;;;;;;;6.13;100.00;102200.97;5023358;28;20029;-57
2022/11/30 03:42:07;;;;;;;38.83;23.67;;;;;;;6.12;100.00;102203.72;5025436;28;20107;-59
2022/11/30 03:44:32;;;;;;;38.08;23.55;;;;;;;6.11;100.00;102202.06;5023237;28;20034;-58
2022/11/30 03:46:57;;;;;;;40.50;23.73;;;;;;;6.10;100.00;102206.47;5021139;28;20037;-58
2022/11/30 03:49:22;;;;;;;39.67;23.42;;;;;;;6.04;100.00;102207.72;5020488;28;20033;-57
2022/11/30 03:51:48;;;;;;;38.75;23.67;;;;;;;6.07;100.00;102211.09;5023001;28;20077;-57
2022/11/30 03:54:13;;;;;;;40.13;22.73;;;;;;;6.05;100.00;102209.41;5022645;28;20108;-57
2022/11/30 03:56:39;;;;;;;39.33;23.10;;;;;;;6.04;100.00;102212.13;5021202;28;20481;-57
2022/11/30 03:59:04;;;;;;;39.80;22.80;;;;;;;6.04;100.00;102215.63;5015238;28;20116;-56
2022/11/30 04:01:29;;;;;;;40.10;23.38;;;;;;;6.07;100.00;102211.09;5014552;28;20049;-57
2022/11/30 04:03:55;;;;;;;39.80;22.45;;;;;;;6.04;100.00;102212.97;5018748;28;20042;-56
2022/11/30 04:06:21;;;;;;;39.70;23.48;;;;;;;6.05;100.00;102205.91;5021745;28;20033;-58
2022/11/30 04:08:46;;;;;;;38.92;22.83;;;;;;;6.08;100.00;102216.25;5015826;28;20087;-57
2022/11/30 04:11:12;;;;;;;40.50;23.92;;;;;;;6.05;100.00;102204.13;5022347;28;20044;-57
2022/11/30 04:13:39;;;;;;;39.05;22.95;;;;;;;6.08;100.00;102218.88;5021738;28;20061;-57
2022/11/30 04:16:05;;;;;;;36.20;22.55;;;;;;;6.04;100.00;102218.25;5019035;28;20118;-58
2022/11/30 04:18:32;;;;;;;37.50;21.58;;;;;;;6.03;100.00;102211.25;5023999;28;20037;-57
2022/11/30 04:20:59;;;;;;;39.25;22.92;;;;;;;6.04;100.00;102206.84;5014998;28;20043;-58
2022/11/30 04:23:27;;;;;;;37.28;22.90;;;;;;;6.08;100.00;102215.41;5022403;28;20481;-56
2022/11/30 04:25:53;;;;;;;35.08;21.13;;;;;;;6.04;100.00;102212.13;5020205;28;20037;-58
2022/11/30 04:28:18;;;;;;;36.22;20.88;;;;;;;6.03;100.00;102215.69;5018888;28;20044;-57
2022/11/30 04:30:45;;;;;;;34.65;21.30;;;;;;;6.01;100.00;102213.13;5014222;28;20033;-56
2022/11/30 04:33:11;;;;;;;37.88;20.50;;;;;;;5.98;100.00;102213.34;5022201;28;20032;-57
2022/11/30 04:35:40;;;;;;;36.70;21.52;;;;;;;5.97;100.00;102216.88;5017677;28;20038;-58
2022/11/30 04:38:06;;;;;;;36.30;22.25;;;;;;;5.97;100.00;102216.88;5022549;28;20053;-57
2022/11/30 04:40:31;;;;;;;36.85;22.38;;;;;;;5.97;100.00;102216.06;5023020;28;20088;-57
2022/11/30 04:42:56;;;;;;;40.15;23.27;;;;;;;5.97;100.00;102216.06;5022273;28;20146;-59
2022/11/30 04:45:21;;;;;;;40.47;23.13;;;;;;;5.96;100.00;102220.47;5013931;28;20478;-56
2022/11/30 04:47:47;;;;;;;36.33;22.38;;;;;;;5.97;100.00;102223.97;5014371;28;20040;-57
2022/11/30 04:50:12;;;;;;;42.00;22.17;;;;;;;5.95;100.00;102221.41;5018293;28;21124;-59
2022/11/30 04:52:37;;;;;;;38.13;22.65;;;;;;;5.94;100.00;102225.00;5024043;28;20029;-56
2022/11/30 04:55:03;;;;;;;38.08;23.17;;;;;;;5.92;100.00;102224.22;5012797;28;20088;-59
2022/11/30 04:57:28;;;;;;;35.38;22.05;;;;;;;5.93;100.00;102220.69;5020365;28;20408;-56
2022/11/30 04:59:54;;;;;;;37.42;22.35;;;;;;;5.91;100.00;102212.00;5012775;28;20049;-58
2022/11/30 05:02:19;;;;;;;39.05;22.27;;;;;;;5.90;100.00;102216.44;5010472;28;20037;-57
2022/11/30 05:04:44;;;;;;;37.70;22.77;;;;;;;5.88;100.00;102222.75;5013872;28;20034;-56
2022/11/30 05:07:10;;;;;;;35.38;21.98;;;;;;;5.88;100.00;102222.75;5014457;28;20033;-59
2022/11/30 05:09:35;;;;;;;37.97;22.95;;;;;;;5.86;100.00;102219.34;5013495;28;20550;-57
2022/11/30 05:12:00;;;;;;;36.70;22.33;;;;;;;5.83;100.00;102219.56;5019470;28;20052;-58
2022/11/30 05:14:26;;;;;;;33.97;21.42;;;;;;;5.81;100.00;102221.44;5014906;28;20109;-58
2022/11/30 05:16:51;;;;;;;36.97;22.75;;;;;;;5.79;100.00;102225.00;5015265;28;20041;-58
2022/11/30 05:19:17;;;;;;;38.58;22.75;;;;;;;5.79;100.00;102224.16;5014660;28;20061;-57
2022/11/30 05:21:43;;;;;;;38.90;24.20;;;;;;;5.78;100.00;102228.56;5020630;28;22044;-57
2022/11/30 05:24:09;;;;;;;40.25;23.13;;;;;;;5.78;100.00;102223.31;5021621;28;20030;-59
2022/11/30 05:26:35;;;;;;;36.03;22.65;;;;;;;5.76;100.00;102226.97;5009737;28;20033;-59
2022/11/30 05:29:00;;;;;;;38.08;22.83;;;;;;;5.78;100.00;102233.84;5010807;28;20420;-57
2022/11/30 05:31:26;;;;;;;38.97;23.27;;;;;;;5.78;100.00;102227.75;5011768;28;20415;-57
2022/11/30 05:33:52;;;;;;;39.58;23.27;;;;;;;5.77;100.00;102236.56;5023103;28;20037;-57
2022/11/30 05:36:18;;;;;;;34.25;23.10;;;;;;;5.78;100.00;102233.00;5020113;28;20037;-57
2022/11/30 05:38:44;;;;;;;36.20;22.52;;;;;;;5.78;100.00;102227.75;5014527;28;20509;-57
2022/11/30 05:41:09;;;;;;;34.65;21.63;;;;;;;5.76;100.00;102235.72;5019555;28;20060;-57
2022/11/30 05:43:35;;;;;;;34.15;22.42;;;;;;;5.78;100.00;102243.53;5025532;28;20070;-59
2022/11/30 05:46:05;;;;;;;36.08;22.10;;;;;;;5.77;100.00;102237.41;5019685;28;20025;-57
2022/11/30 05:48:31;;;;;;;35.85;22.33;;;;;;;5.78;100.00;102238.28;5017406;28;20376;-57
2022/11/30 05:51:08;;;;;;;36.67;22.55;;;;;;;5.81;100.00;102247.78;5003706;28;20030;-60
2022/11/30 05:53:34;;;;;;;34.90;21.58;;;;;;;5.73;100.00;102250.88;5029713;28;20028;-57
2022/11/30 05:56:04;;;;;;;31.35;18.80;;;;;;;5.65;100.00;102251.34;5021405;28;20481;-56
2022/11/30 05:58:29;;;;;;;33.00;20.42;;;;;;;5.61;100.00;102242.78;5018680;28;20129;-57
2022/11/30 06:00:55;;;;;;;33.45;21.85;;;;;;;5.59;100.00;102243.81;5025218;28;20101;-56
2022/11/30 06:03:20;;;;;;;34.90;21.58;;;;;;;5.65;100.00;102259.22;5019952;28;20065;-59
2022/11/30 06:05:49;;;;;;;37.53;22.23;;;;;;;5.67;100.00;102259.97;5015644;28;20044;-57
2022/11/30 06:08:14;;;;;;;36.30;22.75;;;;;;;5.68;100.00;102263.47;5012638;28;20436;-59
2022/11/30 06:10:39;;;;;;;36.97;22.83;;;;;;;5.69;100.00;102259.88;5013075;28;20033;-57
2022/11/30 06:13:08;;;;;;;36.10;22.23;;;;;;;5.71;100.00;102258.00;5018054;28;20029;-56
2022/11/30 06:15:35;;;;;;;38.92;22.70;;;;;;;5.72;100.00;102255.28;5010171;28;20040;-57
2022/11/30 06:18:00;;;;;;;37.13;22.48;;;;;;;5.72;100.00;102262.34;5010568;28;20033;-56
2022/11/30 06:20:25;;;;;;;35.10;21.92;;;;;;;5.70;100.00;102262.44;5013671;28;20107;-57
2022/11/30 06:22:50;;;;;;;35.35;22.00;;;;;;;5.71;100.00;102260.63;5022917;28;20029;-59
2022/11/30 06:25:16;;;;;;;38.20;23.13;;;;;;;5.69;100.00;102258.13;5017717;28;20028;-60
2022/11/30 06:27:42;;;;;;;35.83;22.08;;;;;;;5.67;100.00;102267.88;5008912;28;20393;-60
2022/11/30 06:30:08;;;;;;;39.63;21.98;;;;;;;5.66;100.00;102263.56;5014618;28;20083;-60
2022/11/30 06:32:33;;;;;;;37.67;22.77;;;;;;;5.68;100.00;102269.59;5016425;28;20052;-60
2022/11/30 06:34:59;;;;;;;39.60;22.40;;;;;;;5.69;100.00;102263.38;5010047;28;20037;-57
2022/11/30 06:37:24;;;;;;;38.90;22.80;;;;;;;5.69;100.00;102266.00;5009594;28;20029;-59
2022/11/30 06:39:49;;;;;;;38.42;23.20;;;;;;;5.70;100.00;102262.44;5017727;28;20116;-58
2022/11/30 06:42:15;;;;;;;36.28;22.38;;;;;;;5.72;100.00;102271.06;5005196;28;20095;-57
2022/11/30 06:44:40;;;;;;;33.88;22.05;;;;;;;5.73;100.00;102262.22;5008628;28;20048;-57
2022/11/30 06:47:05;;;;;;;36.72;21.23;;;;;;;5.74;100.00;102263.09;5007162;28;20030;-58
2022/11/30 06:49:30;;;;;;;38.00;23.27;;;;;;;5.73;100.00;102267.50;5009257;28;20034;-59
2022/11/30 06:51:56;;;;;;;36.28;22.77;;;;;;;5.75;100.00;102270.03;5010996;28;20033;-59
2022/11/30 06:54:21;;;;;;;34.13;21.92;;;;;;;5.71;100.00;102269.38;5012228;28;20029;-59
2022/11/30 06:56:47;;;;;;;38.60;22.65;;;;;;;5.72;100.00;102281.59;5011694;28;20037;-58
2022/11/30 06:59:12;;;;;;;35.15;22.33;;;;;;;5.71;100.00;102273.78;5011639;28;20029;-60
2022/11/30 07:01:37;;;;;;;35.42;22.25;;;;;;;5.70;100.00;102277.38;5011406;28;20041;-58
2022/11/30 07:04:03;;;;;;;35.28;22.65;;;;;;;5.71;100.00;102279.91;5015938;28;20027;-58
2022/11/30 07:06:28;;;;;;;36.50;22.75;;;;;;;5.70;100.00;102277.38;5011963;28;20129;-59
2022/11/30 07:08:53;;;;;;;38.13;22.08;;;;;;;5.69;100.00;102279.16;5010345;28;20033;-59
2022/11/30 07:11:19;;;;;;;35.83;22.58;;;;;;;5.71;100.00;102285.19;5015378;28;20520;-59
2022/11/30 07:13:44;;;;;;;35.97;23.30;;;;;;;5.72;100.00;102281.59;5014277;28;20038;-58
2022/11/30 07:16:11;;;;;;;35.63;22.48;;;;;;;5.73;100.00;102282.47;5015612;28;20038;-58
2022/11/30 07:18:37;;;;;;;38.47;23.33;;;;;;;5.72;100.00;102294.75;5013589;28;20025;-58
2022/11/30 07:21:04;;;;;;;38.35;23.75;;;;;;;5.70;100.00;102294.03;5010370;28;20815;-58
2022/11/30 07:26:13;;;;;;;37.85;22.80;;;;;;;5.69;100.00;102302.88;5017547;28;20483;-57
2022/11/30 07:28:41;;;;;;;37.60;23.45;;;;;;;5.67;100.00;102304.72;5015593;28;20234;-57
2022/11/30 07:31:18;;;;;;;39.70;24.95;;;;;;;5.69;100.00;102308.13;5012476;28;20128;-59
2022/11/30 07:33:44;;;;;;;38.70;24.27;;;;;;;5.66;100.00;102308.28;5014752;28;20057;-58
2022/11/30 07:36:10;;;;;;;40.47;23.85;;;;;;;5.67;100.00;102314.41;5011172;28;20061;-58
2022/11/30 07:38:35;;;;;;;37.83;23.33;;;;;;;5.67;100.00;102303.88;5006939;28;20477;-60
2022/11/30 07:41:01;;;;;;;37.55;22.63;;;;;;;5.66;100.00;102313.56;5016317;28;20041;-58
2022/11/30 07:43:27;;;;;;;38.70;23.42;;;;;;;5.65;100.00;102319.75;5011434;28;20037;-58
2022/11/30 07:45:53;;;;;;;35.97;22.45;;;;;;;5.66;100.00;102324.09;5009251;28;20026;-59
2022/11/30 07:48:18;;;;;;;36.67;23.13;;;;;;;5.67;100.00;102323.13;5016833;28;20029;-58
2022/11/30 07:50:45;;;;;;;42.55;23.88;;;;;;;5.67;100.00;102328.41;5010866;28;20117;-59
2022/11/30 07:53:10;;;;;;;39.80;23.55;;;;;;;5.68;100.00;102332.75;5015338;28;20060;-60
2022/11/30 07:55:35;;;;;;;40.28;23.63;;;;;;;5.71;100.00;102331.69;5013922;28;20057;-59
2022/11/30 07:58:01;;;;;;;35.95;23.63;;;;;;;5.74;100.00;102332.38;5011104;28;20041;-58
2022/11/30 08:00:26;;;;;;;36.40;23.42;;;;;;;5.74;100.00;102327.13;5022926;28;20064;-58
2022/11/30 08:02:51;;;;;;;38.13;23.83;;;;;;;5.75;100.00;102327.94;5011381;28;20033;-58
2022/11/30 08:05:17;;;;;;;37.03;22.83;;;;;;;5.76;100.00;102333.13;5018861;28;20026;-59
2022/11/30 08:07:44;;;;;;;39.25;24.75;;;;;;;5.75;100.00;102328.81;5012462;28;20120;-58
2022/11/30 08:10:10;;;;;;;39.22;23.98;;;;;;;5.77;100.00;102337.44;5018596;28;20646;-61
2022/11/30 08:12:36;;;;;;;37.30;23.95;;;;;;;5.76;100.00;102335.75;5013155;28;20351;-57
2022/11/30 08:15:01;;;;;;;39.58;24.95;;;;;;;5.77;100.00;102337.44;5020255;28;20100;-58
2022/11/30 08:17:27;;;;;;;39.05;25.02;;;;;;;5.78;100.00;102340.94;5018585;28;20037;-58
2022/11/30 08:19:52;;;;;;;36.83;23.73;;;;;;;5.75;100.00;102339.34;5026419;28;20480;-57
2022/11/30 08:22:17;;;;;;;37.78;23.02;;;;;;;5.74;100.00;102342.91;5033661;28;20079;-58
2022/11/30 08:24:43;;;;;;;36.70;23.55;;;;;;;5.73;100.00;102341.19;5021748;28;20111;-60
2022/11/30 08:27:08;;;;;;;36.97;23.23;;;;;;;5.72;100.00;102344.78;5015013;28;20038;-58
2022/11/30 08:29:33;;;;;;;38.13;23.75;;;;;;;5.73;100.00;102346.47;5017417;28;20439;-59
2022/11/30 08:31:58;;;;;;;38.28;24.50;;;;;;;5.74;100.00;102348.19;5020981;28;20032;-58
2022/11/30 08:34:25;;;;;;;39.50;24.80;;;;;;;5.76;100.00;102356.81;5022932;28;20104;-60
2022/11/30 08:36:51;;;;;;;38.97;24.23;;;;;;;5.77;100.00;102353.25;5018043;28;20105;-57
2022/11/30 08:39:16;;;;;;;38.42;23.80;;;;;;;5.78;100.00;102354.94;5018500;28;20192;-57
2022/11/30 08:41:41;;;;;;;40.55;24.17;;;;;;;5.82;100.00;102357.41;5021866;28;20562;-57
2022/11/30 08:44:07;;;;;;;40.28;25.08;;;;;;;5.79;100.00;102359.25;5033501;28;20063;-59
2022/11/30 08:46:32;;;;;;;40.35;24.10;;;;;;;5.81;100.00;102363.59;5013802;28;20556;-59
2022/11/30 08:48:58;;;;;;;40.30;24.75;;;;;;;5.83;100.00;102372.25;5009146;28;20378;-57
2022/11/30 08:51:23;;;;;;;41.92;24.98;;;;;;;5.83;100.00;102369.63;5016954;28;20136;-58
2022/11/30 08:53:49;;;;;;;38.53;24.52;;;;;;;5.83;100.00;102367.84;5027032;28;20104;-58
2022/11/30 08:56:17;;;;;;;39.45;23.95;;;;;;;5.84;100.00;102368.66;5020965;28;20057;-56
2022/11/30 08:58:43;;;;;;;40.28;24.70;;;;;;;5.87;100.00;102368.50;5022470;28;20025;-56
2022/11/30 09:01:21;;;;;;;38.45;24.52;;;;;;;5.92;100.00;102366.41;5021687;28;20401;-58
2022/11/30 09:03:47;;;;;;;40.50;25.10;;;;;;;5.96;100.00;102367.94;5023001;28;20045;-60
2022/11/30 09:06:16;;;;;;;40.80;25.35;;;;;;;6.03;100.00;102365.81;5017587;28;20105;-59
2022/11/30 09:08:43;;;;;;;41.58;26.33;;;;;;;6.04;100.00;102365.72;5020355;28;20033;-59
2022/11/30 09:11:14;;;;;;;39.25;25.45;;;;;;;6.15;100.00;102372.97;5018633;28;20045;-57
2022/11/30 09:13:40;;;;;;;41.38;26.88;;;;;;;6.17;100.00;102378.13;5019461;28;20033;-57
2022/11/30 09:16:06;;;;;;;45.03;25.80;;;;;;;6.24;100.00;102382.09;5013661;28;22093;-57
2022/11/30 09:18:33;;;;;;;40.00;25.20;;;;;;;6.25;100.00;102383.78;5027091;28;20061;-58
2022/11/30 09:21:04;;;;;;;42.53;25.02;;;;;;;6.29;100.00;102385.28;5012355;28;20113;-57
2022/11/30 09:23:30;;;;;;;41.15;25.80;;;;;;;6.33;100.00;102381.50;5023415;28;20029;-57
2022/11/30 09:26:00;;;;;;;40.85;26.30;;;;;;;6.35;100.00;102377.94;5017830;28;20033;-58
2022/11/30 09:28:26;;;;;;;37.60;25.52;;;;;;;6.35;100.00;102388.47;5018828;28;20052;-60
2022/11/30 09:30:52;;;;;;;42.30;26.63;;;;;;;6.38;100.00;102388.28;5019827;28;20032;-58
2022/11/30 09:33:18;;;;;;;41.85;26.60;;;;;;;6.40;100.00;102391.66;5011283;28;20033;-58
2022/11/30 09:35:44;;;;;;;44.65;26.58;;;;;;;6.44;100.00;102393.16;5020844;28;20033;-58
2022/11/30 09:38:09;;;;;;;42.53;26.17;;;;;;;6.42;100.00;102389.78;5018215;28;20406;-57
2022/11/30 09:40:39;;;;;;;44.08;26.67;;;;;;;6.44;100.00;102388.75;5020705;28;20041;-58
2022/11/30 09:43:36;;;;;;;43.83;28.20;;;;;;;6.49;100.00;102395.50;5018776;28;20473;-58
2022/11/30 09:46:05;;;;;;;42.67;27.90;;;;;;;6.40;100.00;102397.78;5014619;28;20037;-57
2022/11/30 09:48:50;;;;;;;41.40;27.55;;;;;;;6.44;100.00;102398.44;5020582;28;20422;-57
2022/11/30 09:51:22;;;;;;;43.60;28.27;;;;;;;6.37;100.00;102391.84;5021682;28;20037;-59
2022/11/30 09:53:54;;;;;;;45.75;28.30;;;;;;;6.38;100.00;102388.28;5022897;28;20044;-61
2022/11/30 09:56:28;;;;;;;45.08;28.85;;;;;;;6.41;100.00;102393.38;5020752;28;20045;-58
2022/11/30 09:58:58;;;;;;;45.55;28.77;;;;;;;6.42;100.00;102395.06;5019226;28;20041;-56
2022/11/30 10:01:24;;;;;;;43.58;28.60;;;;;;;6.45;100.00;102395.72;5021863;28;20092;-58
2022/11/30 10:03:49;;;;;;;43.00;28.35;;;;;;;6.41;100.00;102388.09;5019680;28;20030;-57
2022/11/30 10:06:52;;;;;;;48.45;28.60;;;;;;;6.51;100.00;102397.09;5027770;28;20043;-58
2022/11/30 10:09:32;;;;;;;42.97;28.13;;;;;;;6.54;100.00;102393.44;5016128;28;20032;-58
2022/11/30 10:12:22;;;;;;;42.60;27.92;;;;;;;6.56;100.00;102386.28;5022564;28;20065;-59
2022/11/30 10:14:59;;;;;;;46.30;28.23;;;;;;;6.57;100.00;102383.53;5019249;28;20022;-60
2022/11/30 10:17:38;;;;;;;49.90;29.35;;;;;;;6.61;100.00;102388.63;5017887;28;20147;-59
2022/11/30 10:20:12;;;;;;;41.78;27.30;;;;;;;6.61;100.00;102388.63;5014045;28;20041;-59
2022/11/30 10:23:02;;;;;;;44.17;28.73;;;;;;;6.68;100.00;102385.50;5011034;28;20060;-58
2022/11/30 10:25:34;;;;;;;44.58;28.60;;;;;;;6.73;100.00;102382.56;5021421;28;20041;-58
2022/11/30 10:28:17;;;;;;;47.17;30.27;;;;;;;6.81;100.00;102380.28;5025624;28;20061;-58
2022/11/30 10:30:44;;;;;;;45.30;29.02;;;;;;;6.90;100.00;102378.00;5023607;28;20106;-58
2022/11/30 10:33:15;;;;;;;42.75;28.17;;;;;;;6.94;100.00;102382.13;5020517;28;20080;-58
2022/11/30 10:35:46;;;;;;;42.97;28.65;;;;;;;7.06;100.00;102383.13;5028192;28;20572;-57
2022/11/30 10:38:23;;;;;;;44.78;28.73;;;;;;;7.10;100.00;102374.91;5026240;28;20099;-59
2022/11/30 10:40:58;;;;;;;40.17;27.85;;;;;;;7.13;100.00;102377.38;5020542;28;20065;-59
2022/11/30 10:43:37;;;;;;;41.97;27.88;;;;;;;7.22;100.00;102372.41;5014759;28;20040;-58
2022/11/30 10:46:03;;;;;;;37.80;26.00;;;;;;;7.28;100.00;102377.28;5023091;28;20677;-57
2022/11/30 10:48:46;;;;;;;38.92;26.60;;;;;;;7.35;100.00;102378.56;5017789;28;20022;-59
2022/11/30 10:51:11;;;;;;;;;;;;;;;7.36;100.00;102368.88;5019868;28;20087;-59
2022/11/30 10:53:37;;;;;;;39.97;25.85;;;;;;;7.27;100.00;102370.31;5017088;28;19917;-57
2022/11/30 10:56:10;;;;;;;38.88;25.23;;;;;;;7.38;100.00;102361.69;5021763;28;20051;-48
2022/11/30 10:58:39;;;;;;;33.38;22.83;;;;;;;7.34;100.00;102365.47;5026596;28;20028;-49
2022/11/30 11:01:08;;;;;;;32.33;21.27;;;;;;;7.34;100.00;102371.59;5023300;28;20501;-48
2022/11/30 11:03:34;;;;;;;31.95;21.00;;;;;;;7.33;100.00;102364.63;5022494;28;20045;-55
2022/11/30 11:06:18;;;;;;;30.45;21.25;;;;;;;7.47;100.00;102360.22;5018140;28;20033;-52
2022/11/30 11:08:45;;;;;;;31.73;21.77;;;;;;;7.34;100.00;102370.75;5020482;28;20052;-50
2022/11/30 11:11:36;;;;;;;30.25;19.83;;;;;;;7.48;100.00;102357.50;5025666;28;20043;-51
2022/11/30 11:14:15;;;;;;;33.63;21.20;;;;;;;7.37;100.00;102366.13;5014430;28;20049;-51
2022/11/30 11:16:57;;;;;;;36.10;24.73;;;;;;;7.44;100.00;102365.72;5018891;28;20049;-50